Time;durP1;ratioP1;P1;durP2;ratioP2;P2;SDS_P1;SDS_P2;PMS_P1;PMS_P2;Temp;Humidity;BMP_temperature;BMP_pressure;BME280_temperature;BME280_humidity;BME280_pressure;Samples;Min_cycle;Max_cycle;Signal;HPM_P1;HPM_P2
2023/02/02 00:01:08;;;;;;;2.90;1.02;;;8.60;85.80;;;;;;6228803;23;20036;-82
2023/02/02 00:03:34;;;;;;;4.53;1.10;;;8.70;85.90;;;;;;6228475;23;20004;-80
2023/02/02 00:06:00;;;;;;;3.83;1.00;;;8.60;85.80;;;;;;6228574;23;20009;-81
2023/02/02 00:08:25;;;;;;;6.13;1.38;;;8.60;85.80;;;;;;6228789;23;20051;-81
2023/02/02 00:10:51;;;;;;;3.90;1.05;;;8.60;85.80;;;;;;6228782;23;20028;-83
2023/02/02 00:13:16;;;;;;;3.67;1.33;;;8.50;85.80;;;;;;6228011;23;20004;-80
2023/02/02 00:15:42;;;;;;;5.80;1.15;;;8.60;85.80;;;;;;6221648;23;20059;-81
2023/02/02 00:18:07;;;;;;;3.83;1.25;;;8.60;85.80;;;;;;6218683;23;20001;-80
2023/02/02 00:20:36;;;;;;;3.47;0.90;;;8.60;85.80;;;;;;6225504;23;20009;-80
2023/02/02 00:23:03;;;;;;;5.72;1.15;;;8.60;85.80;;;;;;6223960;23;20012;-80
2023/02/02 00:25:29;;;;;;;3.80;1.17;;;8.70;85.90;;;;;;6220022;23;20095;-80
2023/02/02 00:27:55;;;;;;;4.95;1.10;;;8.50;85.80;;;;;;6224201;23;20031;-82
2023/02/02 00:30:20;;;;;;;3.38;0.90;;;8.60;85.80;;;;;;6222646;23;20009;-81
2023/02/02 00:32:47;;;;;;;3.03;1.00;;;8.70;85.90;;;;;;6222576;23;19997;-82
2023/02/02 00:35:16;;;;;;;5.43;1.13;;;8.70;85.90;;;;;;6222673;23;20008;-85
2023/02/02 00:37:41;;;;;;;4.80;1.17;;;8.70;85.90;;;;;;6231992;23;20339;-82
2023/02/02 00:40:08;;;;;;;5.00;1.20;;;8.60;85.80;;;;;;6229912;23;20001;-83
2023/02/02 00:42:33;;;;;;;4.30;1.05;;;8.60;85.90;;;;;;6230835;23;20004;-82
2023/02/02 00:45:17;;;;;;;6.15;1.30;;;8.60;85.80;;;;;;6228990;23;20011;-83
2023/02/02 00:47:45;;;;;;;5.13;1.10;;;8.70;85.90;;;;;;6228190;23;20390;-81
2023/02/02 00:50:16;;;;;;;5.55;1.35;;;8.60;85.90;;;;;;6224818;23;20052;-80
2023/02/02 00:52:42;;;;;;;5.70;1.20;;;8.60;85.80;;;;;;6228092;23;20083;-82
2023/02/02 00:55:09;;;;;;;3.53;0.93;;;8.60;85.90;;;;;;6228225;23;20055;-83
2023/02/02 00:57:34;;;;;;;4.90;1.33;;;8.60;85.90;;;;;;6228046;23;20011;-80
2023/02/02 01:00:00;;;;;;;4.20;1.10;;;8.60;85.80;;;;;;6227462;23;20000;-82
2023/02/02 01:02:26;;;;;;;2.78;0.95;;;8.60;85.80;;;;;;6226658;23;20015;-81
2023/02/02 01:04:51;;;;;;;4.97;1.00;;;8.60;85.80;;;;;;6217997;23;20490;-79
2023/02/02 01:07:17;;;;;;;4.13;1.15;;;8.60;85.80;;;;;;6222787;23;20024;-82
2023/02/02 01:09:42;;;;;;;5.22;1.10;;;8.70;85.90;;;;;;6225260;23;20080;-81
2023/02/02 01:12:08;;;;;;;3.88;1.23;;;8.60;85.80;;;;;;6225071;23;20596;-80
2023/02/02 01:14:33;;;;;;;4.15;1.20;;;8.60;85.80;;;;;;6225224;23;20391;-79
2023/02/02 01:16:59;;;;;;;3.67;1.15;;;8.70;85.90;;;;;;6225435;23;20000;-82
2023/02/02 01:19:24;;;;;;;4.72;1.30;;;8.60;85.80;;;;;;6224910;23;20008;-81
2023/02/02 01:21:50;;;;;;;4.70;1.35;;;8.60;85.80;;;;;;6219375;23;20008;-80
2023/02/02 01:24:15;;;;;;;3.13;1.10;;;8.50;85.80;;;;;;6215711;23;20059;-81
2023/02/02 01:26:41;;;;;;;5.90;1.33;;;8.60;85.90;;;;;;6215337;23;20047;-80
2023/02/02 01:29:07;;;;;;;3.70;1.00;;;8.60;85.90;;;;;;6217251;23;20024;-80
2023/02/02 01:31:33;;;;;;;5.47;1.20;;;8.60;85.90;;;;;;6220350;23;20005;-80
2023/02/02 01:33:58;;;;;;;4.07;1.08;;;8.60;85.80;;;;;;6221376;23;20007;-81
2023/02/02 01:36:24;;;;;;;3.80;0.90;;;8.60;85.90;;;;;;6219273;23;20061;-80
2023/02/02 01:38:50;;;;;;;5.20;1.00;;;8.60;85.80;;;;;;6215688;23;20004;-82
2023/02/02 01:41:19;;;;;;;5.22;1.27;;;8.60;85.90;;;;;;6216078;23;20024;-82
2023/02/02 01:43:44;;;;;;;4.63;0.98;;;8.60;85.80;;;;;;6214530;23;20008;-83
2023/02/02 01:46:24;;;;;;;5.32;1.15;;;8.60;85.80;;;;;;6214757;23;20463;-80
2023/02/02 01:48:58;;;;;;;4.18;1.08;;;8.60;85.80;;;;;;6217366;23;20013;-81
2023/02/02 01:51:34;;;;;;;5.68;1.05;;;8.60;85.80;;;;;;6220622;23;20000;-82
2023/02/02 01:54:00;;;;;;;4.53;0.90;;;8.60;85.80;;;;;;6220109;23;20080;-82
2023/02/02 01:56:33;;;;;;;6.68;1.48;;;8.60;85.80;;;;;;6219525;23;20001;-83
2023/02/02 01:59:00;;;;;;;3.45;0.88;;;8.60;85.80;;;;;;6217154;23;20449;-83
2023/02/02 02:01:26;;;;;;;4.55;1.02;;;8.60;86.40;;;;;;6214161;23;20004;-82
2023/02/02 02:03:51;;;;;;;4.72;1.20;;;8.60;85.80;;;;;;6215688;23;20000;-80
2023/02/02 02:06:18;;;;;;;4.53;0.90;;;8.60;85.90;;;;;;6215892;23;20001;-80
2023/02/02 02:09:02;;;;;;;5.13;1.10;;;8.60;85.90;;;;;;6217523;23;20008;-80
2023/02/02 02:11:29;;;;;;;3.42;0.88;;;8.60;85.80;;;;;;6216087;23;20015;-80
2023/02/02 02:17:05;;;;;;;4.32;1.05;;;8.70;85.90;;;;;;6095423;23;20009;-81
2023/02/02 02:29:01;;;;;;;4.45;1.00;;;8.60;85.90;;;;;;6098257;23;20017;-79
2023/02/02 02:31:30;;;;;;;4.30;1.13;;;8.60;85.80;;;;;;6072010;23;20007;-81
2023/02/02 02:34:13;;;;;;;4.00;1.00;;;8.60;85.90;;;;;;6071657;23;20337;-81
2023/02/02 02:36:49;;;;;;;4.43;1.00;;;8.60;85.90;;;;;;6069861;23;20426;-80
2023/02/02 02:39:26;;;;;;;5.82;1.10;;;8.70;85.90;;;;;;6067922;23;20037;-79
2023/02/02 02:41:57;;;;;;;4.97;1.10;;;8.60;85.90;;;;;;6092795;23;20175;-80
2023/02/02 02:44:25;;;;;;;5.15;0.93;;;8.60;85.90;;;;;;6068757;23;20003;-80
2023/02/02 02:46:50;;;;;;;4.78;1.00;;;8.60;85.90;;;;;;6068451;23;20013;-81
2023/02/02 02:49:16;;;;;;;4.13;1.15;;;8.60;85.90;;;;;;6070145;23;20010;-82
2023/02/02 02:51:53;;;;;;;5.75;1.20;;;8.60;85.90;;;;;;6068934;23;20010;-80
2023/02/02 02:54:32;;;;;;;4.47;1.00;;;8.60;85.90;;;;;;6072069;23;20013;-80
2023/02/02 02:57:23;;;;;;;4.68;1.10;;;8.60;85.90;;;;;;6071190;23;20341;-80
2023/02/02 03:00:26;;;;;;;4.88;1.00;;;8.60;85.90;;;;;;6069921;23;20145;-79
2023/02/02 03:03:34;;;;;;;3.83;1.02;;;8.60;85.90;;;;;;6072043;23;20002;-80
2023/02/02 03:06:27;;;;;;;4.72;0.85;;;8.60;85.90;;;;;;6074902;23;20007;-81
2023/02/02 03:09:05;;;;;;;3.80;1.15;;;8.60;85.90;;;;;;6068111;23;20003;-81
2023/02/02 03:11:30;;;;;;;4.80;1.15;;;8.60;85.90;;;;;;6083000;23;20010;-82
2023/02/02 03:13:56;;;;;;;3.45;1.10;;;8.60;85.90;;;;;;6149277;23;20088;-83
2023/02/02 03:16:21;;;;;;;4.20;0.93;;;8.60;85.90;;;;;;6230427;23;19996;-81
2023/02/02 03:18:47;;;;;;;4.82;1.05;;;8.60;85.90;;;;;;6231527;23;20001;-83
2023/02/02 03:21:12;;;;;;;7.00;1.67;;;8.60;85.90;;;;;;6227118;23;20058;-80
2023/02/02 03:23:38;;;;;;;4.40;0.98;;;8.60;85.90;;;;;;6216339;23;20387;-82
2023/02/02 03:26:04;;;;;;;4.03;1.00;;;8.60;85.90;;;;;;6225686;23;20005;-80
2023/02/02 03:28:31;;;;;;;5.90;1.27;;;8.60;85.90;;;;;;6228496;23;20015;-81
2023/02/02 03:30:59;;;;;;;3.55;0.88;;;8.60;86.00;;;;;;6226604;23;20112;-80
2023/02/02 03:33:25;;;;;;;3.58;1.00;;;8.70;86.00;;;;;;6224189;23;20005;-82
2023/02/02 03:35:51;;;;;;;3.58;1.10;;;8.60;85.90;;;;;;6226948;23;20023;-83
2023/02/02 03:38:16;;;;;;;5.18;1.33;;;8.60;85.90;;;;;;6226949;23;20001;-80
2023/02/02 03:40:42;;;;;;;4.88;1.20;;;8.60;85.90;;;;;;6225632;23;20305;-82
2023/02/02 03:43:07;;;;;;;4.00;1.10;;;8.60;85.90;;;;;;6220331;23;20001;-82
2023/02/02 03:45:37;;;;;;;4.85;0.90;;;8.60;85.90;;;;;;6219265;23;20005;-80
2023/02/02 03:48:04;;;;;;;4.35;1.10;;;8.60;85.90;;;;;;6226073;23;20009;-82
2023/02/02 03:50:30;;;;;;;4.15;0.90;;;8.70;86.00;;;;;;6225124;23;20008;-81
2023/02/02 03:52:55;;;;;;;3.20;0.90;;;8.60;85.90;;;;;;6226959;23;20066;-80
2023/02/02 03:55:21;;;;;;;5.63;1.05;;;8.50;85.90;;;;;;6230717;23;20001;-82
2023/02/02 03:57:46;;;;;;;3.40;1.10;;;8.60;85.90;;;;;;6232477;23;20008;-84
2023/02/02 04:00:12;;;;;;;2.50;0.80;;;8.60;85.90;;;;;;6232235;23;20004;-81
2023/02/02 04:02:38;;;;;;;4.43;1.00;;;8.60;85.90;;;;;;6231612;23;20324;-81
2023/02/02 04:05:04;;;;;;;4.22;0.98;;;8.60;85.90;;;;;;6228631;23;20088;-81
2023/02/02 04:07:30;;;;;;;3.20;0.93;;;8.60;86.00;;;;;;6218158;23;20009;-80
2023/02/02 04:09:55;;;;;;;3.88;1.00;;;8.60;86.00;;;;;;6218151;23;20313;-80
2023/02/02 04:12:21;;;;;;;4.30;1.10;;;8.60;86.00;;;;;;6216858;23;20008;-80
2023/02/02 04:14:46;;;;;;;2.92;0.90;;;8.60;85.90;;;;;;6122026;23;20085;-81
2023/02/02 04:17:12;;;;;;;3.38;0.77;;;8.60;86.00;;;;;;6100528;23;20002;-83
2023/02/02 04:19:37;;;;;;;5.20;1.15;;;8.60;86.00;;;;;;6081133;23;19998;-80
2023/02/02 04:22:02;;;;;;;5.10;0.98;;;8.60;85.90;;;;;;6080485;23;20002;-80
2023/02/02 04:24:28;;;;;;;4.18;0.93;;;8.60;85.90;;;;;;6107030;23;20444;-80
2023/02/02 04:26:53;;;;;;;3.58;1.00;;;8.60;86.00;;;;;;6105232;23;20002;-80
2023/02/02 04:29:19;;;;;;;4.05;1.17;;;8.60;85.90;;;;;;6079843;23;20081;-80
2023/02/02 04:31:44;;;;;;;3.75;1.40;;;8.70;86.00;;;;;;6078708;23;20457;-81
2023/02/02 04:34:10;;;;;;;3.10;0.95;;;8.60;85.90;;;;;;6078746;23;20034;-81
2023/02/02 04:36:35;;;;;;;3.65;1.10;;;8.70;86.00;;;;;;6078243;23;20373;-81
2023/02/02 04:39:01;;;;;;;3.50;1.00;;;8.60;85.90;;;;;;6078299;23;19999;-82
2023/02/02 04:41:27;;;;;;;4.03;0.77;;;8.70;86.00;;;;;;6077683;23;20021;-81
2023/02/02 04:43:52;;;;;;;3.85;1.17;;;8.60;86.00;;;;;;6102113;23;20013;-77
2023/02/02 04:46:18;;;;;;;3.88;1.00;;;8.80;86.10;;;;;;6069967;23;20017;-80
2023/02/02 04:48:43;;;;;;;4.65;1.10;;;8.70;86.00;;;;;;6075109;23;20003;-80
2023/02/02 04:51:12;;;;;;;2.95;0.85;;;8.60;85.90;;;;;;6102173;23;20025;-80
2023/02/02 04:53:38;;;;;;;2.72;0.60;;;8.70;86.10;;;;;;6102269;23;20056;-82
2023/02/02 04:56:07;;;;;;;4.68;1.15;;;8.60;86.00;;;;;;6098266;23;20008;-81
2023/02/02 04:58:33;;;;;;;2.67;0.80;;;8.60;85.90;;;;;;6071895;23;20010;-80
2023/02/02 05:00:58;;;;;;;3.35;0.90;;;8.60;85.90;;;;;;6095834;23;20006;-81
2023/02/02 05:03:24;;;;;;;3.38;0.90;;;8.70;86.00;;;;;;6075363;23;20030;-80
2023/02/02 05:05:49;;;;;;;3.95;0.82;;;8.60;86.00;;;;;;6074883;23;20036;-80
2023/02/02 05:08:15;;;;;;;2.45;0.80;;;8.70;86.00;;;;;;6075957;23;20010;-80
2023/02/02 05:10:41;;;;;;;3.90;0.70;;;8.60;86.00;;;;;;6074595;23;20028;-80
2023/02/02 05:13:07;;;;;;;5.22;0.95;;;8.60;86.00;;;;;;6072515;23;20348;-80
2023/02/02 05:15:34;;;;;;;3.33;0.93;;;8.70;86.00;;;;;;6096733;23;20090;-80
2023/02/02 05:17:59;;;;;;;3.38;0.93;;;8.70;86.00;;;;;;6075295;23;20006;-79
2023/02/02 05:20:25;;;;;;;3.17;1.08;;;8.60;85.90;;;;;;6070639;23;20349;-84
2023/02/02 05:22:50;;;;;;;4.50;1.13;;;8.70;86.00;;;;;;6064525;23;20050;-78
2023/02/02 05:25:17;;;;;;;1.80;0.60;;;8.70;86.00;;;;;;6061029;23;20007;-80
2023/02/02 05:27:44;;;;;;;3.40;0.90;;;8.70;86.00;;;;;;6062160;23;20392;-77
2023/02/02 05:30:13;;;;;;;2.45;0.80;;;8.60;86.00;;;;;;6089900;23;20014;-87
2023/02/02 05:32:39;;;;;;;3.33;0.90;;;8.60;85.90;;;;;;6066749;23;20061;-78
2023/02/02 05:35:05;;;;;;;1.25;0.60;;;8.60;85.90;;;;;;6063416;23;20013;-79
2023/02/02 05:37:31;;;;;;;4.05;0.88;;;8.70;86.00;;;;;;6067019;23;20033;-80
2023/02/02 05:39:56;;;;;;;3.75;1.00;;;8.60;85.90;;;;;;6068148;23;20441;-83
2023/02/02 05:42:22;;;;;;;2.90;0.77;;;8.60;85.90;;;;;;6068682;23;20030;-78
2023/02/02 05:44:47;;;;;;;4.68;1.20;;;8.60;86.00;;;;;;6066440;23;20025;-81
2023/02/02 05:47:13;;;;;;;4.20;0.95;;;8.60;85.90;;;;;;6061428;23;20006;-77
2023/02/02 05:49:38;;;;;;;2.67;0.90;;;8.70;86.00;;;;;;6057336;23;20007;-77
2023/02/02 05:52:04;;;;;;;2.72;0.90;;;8.60;85.90;;;;;;6058935;23;20045;-75
2023/02/02 05:54:29;;;;;;;4.13;0.90;;;8.70;86.00;;;;;;6083455;23;20007;-76
2023/02/02 05:56:55;;;;;;;3.75;0.90;;;8.60;85.90;;;;;;6087102;23;20025;-81
2023/02/02 05:59:21;;;;;;;3.17;0.90;;;8.60;85.90;;;;;;6061549;23;20003;-78
2023/02/02 06:01:47;;;;;;;3.78;0.88;;;8.70;86.00;;;;;;6062841;23;20010;-79
2023/02/02 06:04:14;;;;;;;4.25;1.00;;;8.70;86.00;;;;;;6061750;23;20010;-77
2023/02/02 06:06:41;;;;;;;4.55;1.02;;;8.60;85.90;;;;;;6063058;23;20481;-82
2023/02/02 06:09:07;;;;;;;2.75;0.88;;;8.60;85.90;;;;;;6063301;23;20018;-79
2023/02/02 06:11:33;;;;;;;2.67;0.80;;;8.70;86.00;;;;;;6066465;23;20730;-79
2023/02/02 06:13:59;;;;;;;4.45;0.90;;;8.60;86.40;;;;;;6132230;23;20044;-79
2023/02/02 06:16:24;;;;;;;2.83;0.85;;;8.70;86.00;;;;;;6210791;23;20012;-80
2023/02/02 06:18:50;;;;;;;3.55;0.90;;;8.60;86.00;;;;;;6214477;23;20012;-81
2023/02/02 06:21:16;;;;;;;4.38;0.90;;;8.70;86.00;;;;;;6212624;23;20004;-78
2023/02/02 06:23:44;;;;;;;2.92;0.80;;;8.60;85.90;;;;;;6213926;23;20007;-79
2023/02/02 06:26:19;;;;;;;2.45;0.77;;;8.70;86.00;;;;;;6219491;23;20090;-80
2023/02/02 06:28:49;;;;;;;3.78;0.70;;;8.70;86.00;;;;;;6216550;23;20107;-81
2023/02/02 06:31:17;;;;;;;3.90;1.02;;;8.60;85.90;;;;;;6212081;23;20008;-84
2023/02/02 06:33:47;;;;;;;3.05;1.00;;;8.70;86.00;;;;;;6214285;23;20008;-81
2023/02/02 06:36:13;;;;;;;3.60;1.00;;;8.60;85.90;;;;;;6214370;23;20026;-79
2023/02/02 06:38:39;;;;;;;2.40;0.90;;;8.70;86.00;;;;;;6211211;23;20435;-80
2023/02/02 06:41:06;;;;;;;2.45;0.77;;;8.70;86.00;;;;;;6211908;23;20032;-78
2023/02/02 06:43:31;;;;;;;3.38;0.88;;;8.70;86.00;;;;;;6211323;23;20016;-78
2023/02/02 06:45:57;;;;;;;2.83;0.80;;;8.70;86.00;;;;;;6210216;23;20066;-77
2023/02/02 06:48:23;;;;;;;3.47;0.88;;;8.70;85.90;;;;;;6212019;23;20039;-79
2023/02/02 06:50:49;;;;;;;3.08;0.80;;;8.60;85.90;;;;;;6205239;23;20009;-79
2023/02/02 06:53:14;;;;;;;4.07;0.85;;;8.70;86.00;;;;;;6204589;23;20052;-77
2023/02/02 06:55:40;;;;;;;2.15;0.70;;;8.60;85.90;;;;;;6204076;23;20304;-76
2023/02/02 06:58:06;;;;;;;2.08;0.80;;;8.70;86.00;;;;;;6205488;23;20607;-77
2023/02/02 07:00:32;;;;;;;5.55;1.27;;;8.70;86.00;;;;;;6205742;23;20011;-77
2023/02/02 07:02:57;;;;;;;3.08;0.82;;;8.70;86.00;;;;;;6229630;23;20004;-81
2023/02/02 07:05:23;;;;;;;3.35;0.80;;;8.60;86.40;;;;;;6205802;23;20061;-77
2023/02/02 07:07:49;;;;;;;2.97;0.93;;;8.70;86.00;;;;;;6206360;23;20016;-77
2023/02/02 07:10:15;;;;;;;2.65;0.80;;;8.70;86.00;;;;;;6204375;23;20016;-78
2023/02/02 07:12:41;;;;;;;2.08;0.70;;;8.70;86.00;;;;;;6206845;23;20737;-77
2023/02/02 07:15:07;;;;;;;1.52;0.70;;;8.60;85.90;;;;;;6204091;23;20062;-77
2023/02/02 07:17:33;;;;;;;1.60;0.60;;;8.60;85.90;;;;;;6206403;23;20342;-77
2023/02/02 07:19:58;;;;;;;3.15;0.80;;;8.80;86.00;;;;;;6204592;23;20024;-77
2023/02/02 07:22:24;;;;;;;2.85;0.65;;;8.60;85.90;;;;;;6206569;23;20084;-77
2023/02/02 07:24:49;;;;;;;3.30;0.80;;;8.70;86.00;;;;;;6205901;23;20200;-76
2023/02/02 07:27:15;;;;;;;1.95;0.80;;;8.60;85.90;;;;;;6207221;23;20012;-76
2023/02/02 07:29:40;;;;;;;2.22;0.88;;;8.70;86.00;;;;;;6207271;23;20000;-79
2023/02/02 07:32:06;;;;;;;2.47;0.60;;;8.70;86.00;;;;;;6204220;23;20099;-78
2023/02/02 07:35:31;;;;;;;;;;;;;;;;;;;;;
2023/02/02 07:42:10;;;;;;;;;;;;;;;;;;;;;
2023/02/02 07:44:36;;;;;;;3.22;0.95;;;8.70;86.00;;;;;;6025941;23;20086;-79
2023/02/02 07:47:02;;;;;;;4.47;1.00;;;8.60;85.90;;;;;;6003940;23;20043;-79
2023/02/02 07:49:27;;;;;;;1.85;0.60;;;8.70;86.00;;;;;;6001985;23;20670;-84
2023/02/02 07:51:53;;;;;;;3.40;0.80;;;8.70;86.00;;;;;;6058494;23;20505;-78
2023/02/02 07:54:19;;;;;;;1.67;0.60;;;8.70;86.00;;;;;;6060576;23;20015;-85
2023/02/02 07:56:44;;;;;;;1.88;0.63;;;8.70;86.00;;;;;;6060353;23;20007;-80
2023/02/02 07:59:10;;;;;;;2.03;0.73;;;8.70;86.00;;;;;;6060844;23;20013;-85
2023/02/02 08:01:36;;;;;;;2.60;0.80;;;8.70;86.00;;;;;;6086886;23;20014;-80
2023/02/02 08:04:02;;;;;;;2.17;0.80;;;8.70;86.00;;;;;;6087297;23;20010;-79
2023/02/02 08:06:30;;;;;;;2.55;0.70;;;8.70;86.00;;;;;;6060673;23;20015;-79
2023/02/02 08:08:57;;;;;;;2.17;0.80;;;8.70;86.00;;;;;;6060565;23;20006;-78
2023/02/02 08:11:24;;;;;;;1.63;0.63;;;8.70;86.00;;;;;;6060717;23;20007;-82
2023/02/02 08:13:58;;;;;;;2.15;0.60;;;8.70;86.00;;;;;;6086487;23;19998;-81
2023/02/02 08:16:25;;;;;;;2.78;0.70;;;8.70;86.00;;;;;;6060461;23;20007;-78
2023/02/02 08:18:51;;;;;;;2.58;0.70;;;8.60;85.90;;;;;;6085941;23;20006;-81
2023/02/02 08:21:18;;;;;;;3.85;0.80;;;8.70;86.00;;;;;;6060961;23;20446;-77
2023/02/02 08:23:47;;;;;;;2.60;0.80;;;8.70;86.00;;;;;;6060402;23;20014;-81
2023/02/02 08:26:19;;;;;;;1.90;0.70;;;8.70;86.00;;;;;;6060168;23;20360;-79
2023/02/02 08:28:47;;;;;;;2.25;0.68;;;8.70;85.90;;;;;;6060493;23;20017;-81
2023/02/02 08:31:18;;;;;;;2.97;0.80;;;8.70;86.00;;;;;;6085597;23;20017;-82
2023/02/02 08:33:44;;;;;;;1.85;0.57;;;8.70;85.90;;;;;;6085601;23;20026;-78
2023/02/02 08:36:14;;;;;;;2.25;0.73;;;8.70;86.00;;;;;;6060856;23;20013;-78
2023/02/02 08:38:40;;;;;;;1.77;0.70;;;8.70;85.90;;;;;;6087073;23;20025;-78
2023/02/02 08:41:08;;;;;;;2.45;0.85;;;8.70;85.90;;;;;;6084857;23;20014;-83
2023/02/02 08:43:35;;;;;;;2.33;0.70;;;8.70;85.90;;;;;;6060524;23;20333;-78
2023/02/02 08:46:00;;;;;;;2.22;0.77;;;8.70;85.90;;;;;;6059506;23;20511;-78
2023/02/02 08:48:26;;;;;;;1.08;0.50;;;8.70;85.90;;;;;;6060880;23;20014;-78
2023/02/02 08:50:56;;;;;;;2.70;0.88;;;8.70;86.00;;;;;;6059997;23;20085;-80
2023/02/02 08:53:23;;;;;;;3.85;0.80;;;8.70;85.90;;;;;;6060535;23;20010;-84
2023/02/02 08:56:04;;;;;;;1.95;0.80;;;8.70;86.00;;;;;;6085905;23;20013;-78
2023/02/02 08:58:30;;;;;;;2.13;0.60;;;8.70;85.90;;;;;;6060857;23;20282;-77
2023/02/02 09:01:06;;;;;;;1.65;0.75;;;8.70;85.90;;;;;;6059892;23;20018;-81
2023/02/02 09:03:32;;;;;;;2.38;0.75;;;8.70;85.90;;;;;;6061027;23;20041;-79
2023/02/02 09:06:04;;;;;;;1.48;0.50;;;8.70;85.90;;;;;;6085217;23;20334;-81
2023/02/02 09:08:29;;;;;;;1.77;0.60;;;8.70;85.90;;;;;;6061111;23;20512;-81
2023/02/02 09:10:55;;;;;;;2.63;0.63;;;8.70;85.90;;;;;;6060742;23;20015;-82
2023/02/02 09:13:20;;;;;;;1.75;0.63;;;8.70;85.90;;;;;;6084079;23;20007;-85
2023/02/02 09:15:46;;;;;;;1.70;0.45;;;8.70;85.90;;;;;;6085622;23;20009;-79
2023/02/02 09:18:11;;;;;;;2.03;0.57;;;8.70;85.90;;;;;;6084365;23;20038;-78
2023/02/02 09:20:37;;;;;;;3.13;0.60;;;8.70;85.90;;;;;;6060345;23;20020;-79
2023/02/02 09:23:03;;;;;;;1.63;0.50;;;8.70;86.00;;;;;;6084012;23;20284;-79
2023/02/02 09:25:29;;;;;;;3.05;0.70;;;8.70;86.00;;;;;;6060225;23;20038;-78
2023/02/02 09:27:54;;;;;;;1.50;0.60;;;8.70;86.00;;;;;;6084127;23;20014;-83
2023/02/02 09:30:20;;;;;;;1.20;0.47;;;8.70;86.00;;;;;;6085965;23;20504;-79
2023/02/02 09:32:48;;;;;;;3.05;0.50;;;8.70;86.00;;;;;;6060192;23;20428;-81
2023/02/02 09:35:14;;;;;;;2.17;0.60;;;8.60;85.90;;;;;;6060242;23;20006;-79
2023/02/02 09:37:39;;;;;;;2.35;0.70;;;8.70;86.00;;;;;;6074867;23;20014;-78
2023/02/02 09:40:05;;;;;;;1.90;0.75;;;8.70;86.20;;;;;;6083923;23;20006;-78
2023/02/02 09:42:51;;;;;;;3.50;0.68;;;8.70;86.00;;;;;;6086377;23;20013;-80
2023/02/02 09:45:28;;;;;;;1.63;0.52;;;8.70;86.00;;;;;;6086319;23;20038;-81
2023/02/02 09:48:00;;;;;;;1.48;0.60;;;8.70;86.00;;;;;;6086180;23;20002;-81
2023/02/02 09:50:52;;;;;;;0.95;0.50;;;8.70;86.00;;;;;;6086735;23;20089;-81
2023/02/02 09:53:59;;;;;;;2.85;0.80;;;8.70;86.00;;;;;;6078199;23;20007;-80
2023/02/02 09:56:40;;;;;;;1.77;0.60;;;8.70;86.00;;;;;;6086347;23;20591;-78
2023/02/02 09:59:15;;;;;;;1.13;0.55;;;8.70;86.00;;;;;;6084304;23;20457;-80
2023/02/02 10:01:43;;;;;;;1.85;0.60;;;8.70;86.00;;;;;;6084257;23;20013;-79
2023/02/02 10:04:34;;;;;;;1.13;0.50;;;8.70;86.00;;;;;;6084051;23;20421;-83
2023/02/02 10:07:08;;;;;;;1.83;0.63;;;8.70;86.00;;;;;;6074763;23;20010;-80
2023/02/02 10:09:46;;;;;;;1.48;0.50;;;8.70;85.90;;;;;;6085018;23;20100;-79
2023/02/02 10:12:28;;;;;;;2.30;0.70;;;8.70;86.00;;;;;;6085189;23;20011;-80
2023/02/02 10:15:19;;;;;;;2.50;0.80;;;8.70;86.00;;;;;;6086412;23;20006;-81
2023/02/02 10:18:03;;;;;;;2.00;0.52;;;8.70;86.00;;;;;;6085278;23;20014;-82
2023/02/02 10:20:54;;;;;;;2.47;0.77;;;8.70;85.90;;;;;;6088458;23;20014;-78
2023/02/02 10:23:26;;;;;;;3.33;0.70;;;8.70;85.90;;;;;;6087586;23;20587;-79
2023/02/02 10:26:16;;;;;;;2.50;0.80;;;8.70;85.90;;;;;;6084505;23;20014;-79
2023/02/02 10:28:53;;;;;;;1.17;0.60;;;8.70;85.90;;;;;;6086678;23;20011;-80
2023/02/02 10:31:29;;;;;;;2.15;0.60;;;8.70;85.90;;;;;;6090219;23;20014;-80
2023/02/02 10:34:08;;;;;;;1.75;0.57;;;8.70;85.90;;;;;;6082428;23;20032;-81
2023/02/02 10:36:44;;;;;;;2.60;0.60;;;8.70;85.90;;;;;;6082369;23;20011;-79
2023/02/02 10:39:20;;;;;;;2.63;0.60;;;8.70;85.80;;;;;;6065479;23;20017;-80
2023/02/02 10:42:18;;;;;;;1.65;0.68;;;8.70;85.80;;;;;;6060785;23;20015;-83
2023/02/02 10:44:54;;;;;;;2.78;0.70;;;8.70;85.80;;;;;;6086305;23;20007;-82
2023/02/02 10:47:28;;;;;;;3.10;0.80;;;8.70;85.80;;;;;;6063288;23;20445;-85
2023/02/02 10:50:17;;;;;;;3.05;0.65;;;8.70;85.80;;;;;;6063724;23;20409;-79
2023/02/02 10:52:51;;;;;;;1.38;0.55;;;8.80;85.90;;;;;;6059466;23;20393;-81
2023/02/02 10:55:40;;;;;;;1.75;0.63;;;8.70;85.80;;;;;;6087374;23;20011;-80
2023/02/02 10:58:36;;;;;;;2.28;0.60;;;8.70;85.80;;;;;;6087165;23;20017;-81
2023/02/02 11:01:06;;;;;;;2.00;0.60;;;8.70;85.80;;;;;;6058796;23;20014;-77
2023/02/02 11:03:32;;;;;;;2.83;0.50;;;8.70;85.80;;;;;;6060712;23;20010;-86
2023/02/02 11:08:55;;;;;;;2.50;0.68;;;8.80;85.80;;;;;;6085662;23;20020;-79
2023/02/02 11:11:33;;;;;;;1.50;0.60;;;8.70;86.30;;;;;;6084220;23;20010;-80
2023/02/02 11:14:07;;;;;;;2.10;0.60;;;8.80;85.80;;;;;;6060991;23;20056;-77
2023/02/02 11:16:35;;;;;;;3.78;0.82;;;8.70;85.80;;;;;;6086814;23;19998;-84
2023/02/02 11:19:19;;;;;;;2.40;0.60;;;8.80;85.80;;;;;;6061852;23;20010;-78
2023/02/02 11:21:57;;;;;;;3.10;0.85;;;8.80;85.80;;;;;;6087280;23;20034;-80
2023/02/02 11:24:35;;;;;;;2.25;0.60;;;8.70;85.70;;;;;;6086633;23;20097;-80
2023/02/02 11:27:18;;;;;;;1.25;0.50;;;8.80;85.80;;;;;;6084654;23;20010;-78
2023/02/02 11:29:55;;;;;;;2.33;0.60;;;8.70;85.70;;;;;;6087271;23;20007;-86
2023/02/02 11:32:31;;;;;;;2.35;0.65;;;8.80;85.80;;;;;;6061733;23;20089;-78
2023/02/02 11:35:02;;;;;;;1.30;0.60;;;8.80;85.80;;;;;;6061208;23;20007;-82
2023/02/02 11:37:28;;;;;;;1.73;0.65;;;8.80;85.80;;;;;;6085983;23;20057;-77
2023/02/02 11:39:54;;;;;;;1.20;0.50;;;8.80;85.80;;;;;;6086386;23;20014;-79
2023/02/02 11:42:24;;;;;;;1.58;0.50;;;8.80;85.80;;;;;;6086477;23;20041;-78
2023/02/02 11:44:58;;;;;;;2.17;0.65;;;8.70;85.80;;;;;;6084087;23;20140;-83
2023/02/02 11:47:27;;;;;;;1.00;0.40;;;8.80;85.80;;;;;;6085822;23;20003;-79
2023/02/02 11:49:55;;;;;;;1.50;0.60;;;8.80;85.80;;;;;;6086972;23;20002;-78
2023/02/02 11:52:23;;;;;;;3.00;0.65;;;8.80;85.80;;;;;;6060449;23;20468;-80
2023/02/02 11:54:55;;;;;;;3.72;0.60;;;8.80;85.80;;;;;;6061651;23;20007;-80
2023/02/02 11:57:21;;;;;;;;;;;8.80;85.80;;;;;;6061550;23;20418;-82
2023/02/02 11:59:50;;;;;;;1.60;0.60;;;8.80;85.80;;;;;;6061008;23;20331;-78
2023/02/02 12:02:18;;;;;;;1.08;0.50;;;8.80;85.70;;;;;;6059994;23;20010;-80
2023/02/02 12:04:45;;;;;;;2.00;0.63;;;8.80;85.70;;;;;;6061110;23;20015;-78
2023/02/02 12:07:32;;;;;;;1.17;0.43;;;8.80;85.70;;;;;;6060798;23;20034;-81
2023/02/02 12:10:13;;;;;;;1.00;0.40;;;8.80;85.70;;;;;;6060106;23;20340;-78
2023/02/02 12:12:51;;;;;;;;;;;8.90;85.70;;;;;;6061496;23;20015;-81
2023/02/02 12:15:35;;;;;;;1.80;0.60;;;8.80;85.70;;;;;;6060576;23;20184;-79
2023/02/02 12:18:15;;;;;;;2.72;0.50;;;8.80;85.70;;;;;;6085585;23;20033;-79
2023/02/02 12:20:49;;;;;;;2.15;0.55;;;8.80;85.70;;;;;;6061013;23;20017;-81
2023/02/02 12:23:36;;;;;;;1.52;0.45;;;8.80;85.70;;;;;;6059622;23;20089;-77
2023/02/02 12:26:13;;;;;;;2.33;0.50;;;8.80;85.70;;;;;;6085235;23;20010;-81
2023/02/02 12:28:51;;;;;;;1.42;0.43;;;8.80;85.70;;;;;;6085939;23;20010;-78
2023/02/02 12:31:57;;;;;;;1.77;0.60;;;8.80;85.70;;;;;;6060841;23;20014;-80
2023/02/02 12:35:07;;;;;;;1.85;0.70;;;8.80;85.70;;;;;;6025603;23;20007;-80
2023/02/02 12:37:54;;;;;;;1.58;0.50;;;8.80;85.70;;;;;;6001846;23;20500;-78
2023/02/02 12:40:28;;;;;;;1.20;0.50;;;8.80;85.70;;;;;;6055295;23;20025;-79
2023/02/02 12:43:20;;;;;;;2.08;0.52;;;8.80;86.20;;;;;;6060826;23;20014;-83
2023/02/02 12:46:05;;;;;;;2.47;0.63;;;8.80;85.70;;;;;;6084978;23;20455;-78
2023/02/02 12:48:54;;;;;;;1.42;0.52;;;8.80;85.70;;;;;;6085176;23;20437;-78
2023/02/02 12:51:27;;;;;;;3.20;0.73;;;8.80;85.70;;;;;;6060686;23;20318;-78
2023/02/02 12:54:09;;;;;;;2.42;0.50;;;8.80;85.70;;;;;;6086322;23;20317;-79
2023/02/02 12:56:48;;;;;;;2.60;0.95;;;8.80;85.70;;;;;;6085834;23;20381;-80
2023/02/02 12:59:16;;;;;;;1.00;0.50;;;8.80;85.80;;;;;;6084190;23;20009;-78
2023/02/02 13:02:15;;;;;;;2.45;0.65;;;8.80;85.80;;;;;;6061954;23;20010;-80
2023/02/02 13:04:59;;;;;;;1.92;0.60;;;8.80;85.80;;;;;;6061957;23;20326;-80
2023/02/02 13:07:33;;;;;;;1.52;0.50;;;8.80;85.80;;;;;;6061542;23;20014;-86
2023/02/02 13:10:08;;;;;;;1.90;0.50;;;8.80;85.80;;;;;;6062472;23;20066;-79
2023/02/02 13:12:40;;;;;;;2.55;0.60;;;8.80;85.80;;;;;;6061971;23;20002;-80
2023/02/02 13:15:08;;;;;;;;;;;8.80;85.80;;;;;;6061319;23;20013;-79
2023/02/02 13:18:02;;;;;;;2.13;0.70;;;8.80;86.30;;;;;;6061170;23;19905;-79
2023/02/02 13:20:44;;;;;;;1.17;0.40;;;8.80;85.80;;;;;;6085826;23;20018;-84
2023/02/02 13:23:19;;;;;;;1.80;0.55;;;8.80;85.90;;;;;;6086564;23;20502;-78
2023/02/02 13:26:00;;;;;;;2.25;0.52;;;8.80;85.90;;;;;;6060445;23;20093;-80
2023/02/02 13:28:50;;;;;;;2.58;0.52;;;8.80;85.90;;;;;;6086320;23;20006;-80
2023/02/02 13:31:22;;;;;;;1.23;0.40;;;8.80;85.90;;;;;;6061188;23;20375;-79
2023/02/02 13:33:52;;;;;;;;;;;8.80;85.90;;;;;;6087363;23;20006;-79
2023/02/02 13:36:24;;;;;;;1.63;0.73;;;8.80;85.90;;;;;;6060423;23;19909;-82
2023/02/02 13:38:58;;;;;;;1.05;0.45;;;8.80;85.90;;;;;;6086305;23;20003;-85